createdAt,value
2016-11-07T00:01:12.564Z,13.68
2016-11-07T00:02:25.085Z,13.65
2016-11-07T00:03:36.168Z,13.56
2016-11-07T00:04:48.010Z,13.59
2016-11-07T00:06:00.702Z,13.56
2016-11-07T00:07:13.403Z,13.67
2016-11-07T00:08:26.615Z,13.67
2016-11-07T00:09:37.989Z,13.63
2016-11-07T00:10:49.992Z,13.56
2016-11-07T00:12:02.152Z,13.41
2016-11-07T00:13:13.819Z,13.31
2016-11-07T00:14:26.488Z,13.33
2016-11-07T00:15:38.609Z,13.3
2016-11-07T00:16:48.959Z,13.35
2016-11-07T00:17:59.675Z,13.3
2016-11-07T00:19:11.152Z,13.3
2016-11-07T00:20:23.152Z,13.35
2016-11-07T00:21:34.925Z,13.42
2016-11-07T00:22:46.589Z,13.3
2016-11-07T00:23:58.764Z,13.28
2016-11-07T00:25:10.780Z,13.23
2016-11-07T00:26:21.746Z,13.23
2016-11-07T00:27:33.301Z,13.35
2016-11-07T00:28:45.916Z,13.38
2016-11-07T00:29:56.919Z,13.39
2016-11-07T00:31:08.412Z,13.41
2016-11-07T00:32:20.111Z,13.44
2016-11-07T00:33:32.158Z,13.41
2016-11-07T00:34:44.925Z,13.44
2016-11-07T00:35:55.860Z,13.39
2016-11-07T00:37:07.003Z,13.46
2016-11-07T00:38:19.218Z,13.31
2016-11-07T00:39:32.009Z,13.27
2016-11-07T00:40:44.042Z,13.42
2016-11-07T00:41:55.131Z,13.41
2016-11-07T00:43:07.569Z,13.37
2016-11-07T00:44:18.937Z,13.15
2016-11-07T00:45:31.591Z,13.23
2016-11-07T00:46:42.780Z,13.23
2016-11-07T00:47:54.096Z,13.22
2016-11-07T00:49:06.525Z,13.27
2016-11-07T00:50:19.193Z,13.19
2016-11-07T00:51:30.910Z,13.03
2016-11-07T00:52:42.501Z,13.05
2016-11-07T00:53:55.657Z,12.9
2016-11-07T00:55:08.388Z,12.91
2016-11-07T00:56:20.487Z,12.91
2016-11-07T00:57:31.515Z,12.85
2016-11-07T00:58:42.839Z,12.76
2016-11-07T00:59:53.770Z,12.72
2016-11-07T01:01:05.636Z,12.68
2016-11-07T01:02:17.368Z,12.8
2016-11-07T01:03:27.967Z,12.65
2016-11-07T01:04:40.036Z,12.64
2016-11-07T01:05:52.612Z,12.54
2016-11-07T01:07:03.591Z,12.57
2016-11-07T01:08:16.063Z,12.61
2016-11-07T01:09:27.394Z,12.6
2016-11-07T01:10:38.534Z,12.68
2016-11-07T01:11:50.744Z,12.58
2016-11-07T01:13:02.896Z,12.57
2016-11-07T01:14:14.943Z,12.57
2016-11-07T01:15:26.785Z,12.65
2016-11-07T01:16:37.587Z,12.6
2016-11-07T01:17:49.578Z,12.49
2016-11-07T01:19:01.621Z,12.54
2016-11-07T01:20:13.770Z,12.49
2016-11-07T01:21:24.330Z,12.5
2016-11-07T01:22:37.081Z,12.54
2016-11-07T01:23:49.293Z,12.58
2016-11-07T01:25:01.400Z,12.53
2016-11-07T01:26:14.194Z,12.5
2016-11-07T01:27:25.784Z,12.55
2016-11-07T01:28:38.349Z,12.49
2016-11-07T01:29:50.005Z,12.55
2016-11-07T01:31:02.172Z,12.6
2016-11-07T01:32:14.351Z,12.57
2016-11-07T01:33:25.456Z,12.5
2016-11-07T01:34:37.328Z,12.6
2016-11-07T01:35:49.411Z,12.5
2016-11-07T01:37:01.101Z,12.54
2016-11-07T01:38:11.548Z,12.64
2016-11-07T01:39:24.152Z,12.57
2016-11-07T01:40:34.573Z,12.67
2016-11-07T01:41:46.672Z,12.65
2016-11-07T01:42:57.121Z,12.53
2016-11-07T01:44:08.946Z,12.49
2016-11-07T01:45:19.576Z,12.53
2016-11-07T01:46:31.785Z,12.45
2016-11-07T01:47:44.241Z,12.4
2016-11-07T01:48:57.041Z,12.42
2016-11-07T01:50:08.773Z,12.4
2016-11-07T01:51:19.843Z,12.42
2016-11-07T01:52:31.078Z,12.4
2016-11-07T01:53:42.357Z,12.37
2016-11-07T01:54:54.409Z,12.37
2016-11-07T01:56:06.624Z,12.37
2016-11-07T01:57:17.779Z,12.37
2016-11-07T01:58:30.233Z,12.22
2016-11-07T01:59:41.418Z,12.27
2016-11-07T02:00:54.555Z,12.27
2016-11-07T02:02:06.355Z,12.27
2016-11-07T02:03:18.998Z,12.29
2016-11-07T02:04:31.206Z,12.27
2016-11-07T02:05:43.063Z,12.21
2016-11-07T02:06:54.729Z,12.28
2016-11-07T02:08:06.467Z,12.31
2016-11-07T02:09:18.884Z,12.27
2016-11-07T02:10:31.648Z,12.31
2016-11-07T02:11:43.816Z,12.25
2016-11-07T02:12:55.296Z,12.22
2016-11-07T02:14:06.490Z,12.29
2016-11-07T02:15:18.833Z,12.21
2016-11-07T02:16:30.636Z,12.21
2016-11-07T02:17:42.812Z,12.2
2016-11-07T02:18:54.701Z,12.13
2016-11-07T02:20:06.819Z,12.2
2016-11-07T02:21:18.609Z,12.12
2016-11-07T02:22:30.207Z,12.22
2016-11-07T02:23:41.800Z,12.24
2016-11-07T02:24:52.561Z,12.28
2016-11-07T02:26:04.200Z,12.13
2016-11-07T02:27:15.143Z,12.18
2016-11-07T02:28:27.144Z,12.15
2016-11-07T02:29:39.851Z,12.25
2016-11-07T02:30:51.502Z,12.18
2016-11-07T02:32:04.261Z,12.25
2016-11-07T02:33:16.597Z,12.17
2016-11-07T02:34:28.028Z,12.18
2016-11-07T02:35:40.297Z,12.07
2016-11-07T02:36:52.541Z,12.1
2016-11-07T02:38:03.565Z,12.18
2016-11-07T02:39:15.392Z,12.24
2016-11-07T02:40:27.738Z,12.22
2016-11-07T02:41:40.765Z,12.27
2016-11-07T02:42:52.091Z,12.25
2016-11-07T02:44:03.780Z,12.27
2016-11-07T02:45:16.072Z,12.2
2016-11-07T02:46:28.777Z,12.18
2016-11-07T02:47:42.018Z,12.04
2016-11-07T02:48:53.377Z,11.99
2016-11-07T02:50:05.732Z,11.94
2016-11-07T02:51:18.949Z,11.94
2016-11-07T02:52:31.582Z,12
2016-11-07T02:53:42.819Z,12.09
2016-11-07T02:54:55.692Z,12.07
2016-11-07T02:56:07.852Z,12.03
2016-11-07T02:57:19.643Z,12.09
2016-11-07T02:58:31.502Z,12.07
2016-11-07T02:59:42.873Z,12.02
2016-11-07T03:00:55.120Z,11.88
2016-11-07T03:02:06.619Z,12.02
2016-11-07T03:03:18.837Z,11.94
2016-11-07T03:04:31.640Z,11.99
2016-11-07T03:05:42.464Z,11.88
2016-11-07T03:06:53.763Z,11.88
2016-11-07T03:08:05.953Z,11.95
2016-11-07T03:09:17.541Z,11.91
2016-11-07T03:10:29.553Z,11.8
2016-11-07T03:11:40.908Z,11.95
2016-11-07T03:12:52.159Z,11.99
2016-11-07T03:14:03.043Z,11.97
2016-11-07T03:15:13.917Z,12
2016-11-07T03:16:25.717Z,11.94
2016-11-07T03:17:37.046Z,12.03
2016-11-07T03:18:47.816Z,12
2016-11-07T03:20:00.911Z,11.94
2016-11-07T03:21:12.204Z,12.02
2016-11-07T03:22:24.034Z,11.97
2016-11-07T03:23:37.261Z,11.87
2016-11-07T03:24:49.416Z,11.88
2016-11-07T03:26:01.177Z,11.99
2016-11-07T03:27:11.909Z,11.95
2016-11-07T03:28:23.425Z,12.09
2016-11-07T03:29:36.028Z,12.13
2016-11-07T03:30:49.193Z,12.15
2016-11-07T03:32:01.998Z,12.09
2016-11-07T03:33:14.702Z,12.1
2016-11-07T03:34:27.879Z,12.18
2016-11-07T03:35:40.190Z,12.03
2016-11-07T03:36:50.975Z,12.12
2016-11-07T03:38:03.572Z,11.94
2016-11-07T03:39:15.211Z,11.9
2016-11-07T03:40:26.947Z,11.97
2016-11-07T03:41:38.480Z,11.87
2016-11-07T03:42:51.790Z,11.84
2016-11-07T03:44:04.025Z,11.86
2016-11-07T03:45:16.004Z,11.87
2016-11-07T03:46:27.545Z,11.87
2016-11-07T03:47:38.169Z,11.72
2016-11-07T03:48:50.160Z,11.84
2016-11-07T03:50:01.429Z,11.8
2016-11-07T03:51:12.548Z,11.87
2016-11-07T03:52:22.691Z,11.95
2016-11-07T03:53:33.583Z,11.87
2016-11-07T03:54:45.043Z,11.83
2016-11-07T03:55:57.231Z,11.72
2016-11-07T03:57:09.945Z,11.83
2016-11-07T03:58:22.121Z,11.87
2016-11-07T03:59:34.232Z,11.94
2016-11-07T04:00:46.975Z,11.84
2016-11-07T04:01:59.711Z,11.88
2016-11-07T04:03:10.674Z,11.94
2016-11-07T04:04:23.450Z,12.03
2016-11-07T04:05:34.121Z,11.87
2016-11-07T04:06:47.268Z,11.87
2016-11-07T04:07:59.972Z,11.88
2016-11-07T04:09:11.244Z,11.87
2016-11-07T04:10:22.396Z,11.95
2016-11-07T04:11:34.559Z,11.91
2016-11-07T04:12:46.765Z,11.94
2016-11-07T04:13:59.939Z,11.97
2016-11-07T04:15:12.035Z,11.91
2016-11-07T04:16:24.589Z,11.88
2016-11-07T04:17:36.722Z,11.87
2016-11-07T04:18:47.990Z,11.94
2016-11-07T04:19:59.247Z,11.91
2016-11-07T04:21:11.274Z,12.03
2016-11-07T04:22:23.007Z,11.99
2016-11-07T04:23:35.589Z,11.99
2016-11-07T04:24:47.103Z,11.95
2016-11-07T04:25:58.566Z,11.94
2016-11-07T04:27:11.108Z,12
2016-11-07T04:28:22.524Z,12.1
2016-11-07T04:29:34.083Z,12.03
2016-11-07T04:30:46.320Z,12.03
2016-11-07T04:31:57.166Z,12
2016-11-07T04:33:09.581Z,11.91
2016-11-07T04:34:21.884Z,11.97
2016-11-07T04:35:35.112Z,11.95
2016-11-07T04:36:46.783Z,11.94
2016-11-07T04:37:58.351Z,11.97
2016-11-07T04:39:09.351Z,11.99
2016-11-07T04:40:21.779Z,11.81
2016-11-07T04:41:34.432Z,11.73
2016-11-07T04:42:47.124Z,11.86
2016-11-07T04:44:00.196Z,11.9
2016-11-07T04:45:12.828Z,11.9
2016-11-07T04:46:24.140Z,11.97
2016-11-07T04:47:35.730Z,11.97
2016-11-07T04:48:46.981Z,11.99
2016-11-07T04:49:58.975Z,11.95
2016-11-07T04:51:10.906Z,11.88
2016-11-07T04:52:22.220Z,11.86
2016-11-07T04:53:34.172Z,11.8
2016-11-07T04:54:46.772Z,11.69
2016-11-07T04:55:57.811Z,11.73
2016-11-07T04:57:08.899Z,11.73
2016-11-07T04:58:20.751Z,11.7
2016-11-07T04:59:32.978Z,11.81
2016-11-07T05:00:44.945Z,11.7
2016-11-07T05:01:55.760Z,11.69
2016-11-07T05:03:07.268Z,11.68
2016-11-07T05:04:20.238Z,11.69
2016-11-07T05:05:32.426Z,11.69
2016-11-07T05:06:44.970Z,11.63
2016-11-07T05:07:55.563Z,11.72
2016-11-07T05:09:07.005Z,11.62
2016-11-07T05:10:19.211Z,11.66
2016-11-07T05:11:30.476Z,11.65
2016-11-07T05:12:41.817Z,11.63
2016-11-07T05:13:53.779Z,11.59
2016-11-07T05:15:05.560Z,11.6
2016-11-07T05:16:17.396Z,11.65
2016-11-07T05:17:28.560Z,11.59
2016-11-07T05:18:40.477Z,11.65
2016-11-07T05:19:53.727Z,11.57
2016-11-07T05:21:06.441Z,11.62
2016-11-07T05:22:18.175Z,11.7
2016-11-07T05:23:30.805Z,11.68
2016-11-07T05:24:41.948Z,11.65
2016-11-07T05:25:54.046Z,11.59
2016-11-07T05:27:06.160Z,11.59
2016-11-07T05:28:18.477Z,11.48
2016-11-07T05:29:31.624Z,11.59
2016-11-07T05:30:43.894Z,11.62
2016-11-07T05:31:56.569Z,11.66
2016-11-07T05:33:08.327Z,11.52
2016-11-07T05:34:19.733Z,11.57
2016-11-07T05:35:30.808Z,11.75
2016-11-07T05:36:43.548Z,11.8
2016-11-07T05:37:54.199Z,11.8
2016-11-07T05:39:05.321Z,11.77
2016-11-07T05:40:18.008Z,11.95
2016-11-07T05:41:30.629Z,11.87
2016-11-07T05:42:43.353Z,11.81
2016-11-07T05:43:54.632Z,11.86
2016-11-07T05:45:07.247Z,11.81
2016-11-07T05:46:18.551Z,11.86
2016-11-07T05:47:30.778Z,11.84
2016-11-07T05:48:42.987Z,11.78
2016-11-07T05:49:54.429Z,11.86
2016-11-07T05:51:06.830Z,11.84
2016-11-07T05:52:18.136Z,11.73
2016-11-07T05:53:30.859Z,11.8
2016-11-07T05:54:43.037Z,11.77
2016-11-07T05:55:54.575Z,11.73
2016-11-07T05:57:06.641Z,11.65
2016-11-07T05:58:19.277Z,11.63
2016-11-07T05:59:31.343Z,11.65
2016-11-07T06:00:44.065Z,11.73
2016-11-07T06:01:54.649Z,11.63
2016-11-07T06:03:05.859Z,11.68
2016-11-07T06:04:17.665Z,11.66
2016-11-07T06:05:28.572Z,11.73
2016-11-07T06:06:40.199Z,11.75
2016-11-07T06:07:52.214Z,11.8
2016-11-07T06:09:04.359Z,11.77
2016-11-07T06:10:16.163Z,11.83
2016-11-07T06:11:28.166Z,11.87
2016-11-07T06:12:38.892Z,11.84
2016-11-07T06:13:49.772Z,11.91
2016-11-07T06:15:02.207Z,12.02
2016-11-07T06:16:15.402Z,11.95
2016-11-07T06:17:26.067Z,11.91
2016-11-07T06:18:38.188Z,12.02
2016-11-07T06:19:49.938Z,12.1
2016-11-07T06:21:02.596Z,12.1
2016-11-07T06:22:15.705Z,12.07
2016-11-07T06:23:28.444Z,12.09
2016-11-07T06:24:40.204Z,12.13
2016-11-07T06:25:51.667Z,12.12
2016-11-07T06:27:03.274Z,12.15
2016-11-07T06:28:14.861Z,12.21
2016-11-07T06:29:27.520Z,12.15
2016-11-07T06:30:39.498Z,12.15
2016-11-07T06:31:51.098Z,12.18
2016-11-07T06:33:02.795Z,12.15
2016-11-07T06:34:15.053Z,12.17
2016-11-07T06:35:27.805Z,12.13
2016-11-07T06:36:39.868Z,12.09
2016-11-07T06:37:52.638Z,12.07
2016-11-07T06:39:03.730Z,12.07
2016-11-07T06:40:15.462Z,12.15
2016-11-07T06:41:26.553Z,12.15
2016-11-07T06:42:39.375Z,12.22
2016-11-07T06:43:51.339Z,12.17
2016-11-07T06:45:03.277Z,12.2
2016-11-07T06:46:14.996Z,12.2
2016-11-07T06:47:27.295Z,12.12
2016-11-07T06:48:39.449Z,11.97
2016-11-07T06:49:52.686Z,11.95
2016-11-07T06:51:05.002Z,11.87
2016-11-07T06:52:17.225Z,11.9
2016-11-07T06:53:28.829Z,11.9
2016-11-07T06:54:41.980Z,11.88
2016-11-07T06:55:53.387Z,11.91
2016-11-07T06:57:06.262Z,12.43
2016-11-07T06:58:18.965Z,13.16
2016-11-07T06:59:31.694Z,13.6
2016-11-07T07:00:42.888Z,13.6
2016-11-07T07:01:54.095Z,13.59
2016-11-07T07:03:04.959Z,13.52
2016-11-07T07:04:16.736Z,13.23
2016-11-07T07:05:28.640Z,12.94
2016-11-07T07:06:40.341Z,12.73
2016-11-07T07:07:52.706Z,12.58
2016-11-07T07:09:04.744Z,12.37
2016-11-07T07:10:16.486Z,12.25
2016-11-07T07:11:29.077Z,12.24
2016-11-07T07:12:41.486Z,12.29
2016-11-07T07:13:52.353Z,12.28
2016-11-07T07:15:04.311Z,12.37
2016-11-07T07:16:15.727Z,12.32
2016-11-07T07:17:26.804Z,12.35
2016-11-07T07:18:38.664Z,12.27
2016-11-07T07:19:50.372Z,12.29
2016-11-07T07:21:02.357Z,12.35
2016-11-07T07:22:14.547Z,12.42
2016-11-07T07:23:27.819Z,12.39
2016-11-07T07:24:40.056Z,12.36
2016-11-07T07:25:52.676Z,12.54
2016-11-07T07:27:04.838Z,12.35
2016-11-07T07:28:16.086Z,12.39
2016-11-07T07:29:27.895Z,12.39
2016-11-07T07:30:39.903Z,12.53
2016-11-07T07:31:51.996Z,12.57
2016-11-07T07:33:02.396Z,12.37
2016-11-07T07:34:14.022Z,12.47
2016-11-07T07:35:26.273Z,12.4
2016-11-07T07:36:37.990Z,12.37
2016-11-07T07:37:49.568Z,12.55
2016-11-07T07:39:01.661Z,12.57
2016-11-07T07:40:14.471Z,12.57
2016-11-07T07:41:26.665Z,12.67
2016-11-07T07:42:38.664Z,12.65
2016-11-07T07:43:49.172Z,12.67
2016-11-07T07:45:01.447Z,12.79
2016-11-07T07:46:13.745Z,12.8
2016-11-07T07:47:24.871Z,12.83
2016-11-07T07:48:37.232Z,12.91
2016-11-07T07:49:49.168Z,12.93
2016-11-07T07:51:01.462Z,13
2016-11-07T07:52:12.939Z,13
2016-11-07T07:53:25.402Z,13.01
2016-11-07T07:54:36.690Z,12.98
2016-11-07T07:55:48.796Z,13.09
2016-11-07T07:56:59.613Z,13.19
2016-11-07T07:58:11.342Z,13.15
2016-11-07T07:59:23.077Z,13.11
2016-11-07T08:00:35.147Z,13.03
2016-11-07T08:01:46.347Z,13.16
2016-11-07T08:02:58.756Z,12.94
2016-11-07T08:04:11.150Z,13.18
2016-11-07T08:05:23.153Z,13.16
2016-11-07T08:06:34.855Z,13.12
2016-11-07T08:07:47.444Z,13.16
2016-11-07T08:09:00.121Z,13.19
2016-11-07T08:10:11.805Z,13.19
2016-11-07T08:11:21.729Z,13.31
2016-11-07T08:12:33.829Z,13.31
2016-11-07T08:13:45.283Z,13.54
2016-11-07T08:14:56.903Z,13.54
2016-11-07T08:16:09.333Z,13.5
2016-11-07T08:17:22.133Z,13.63
2016-11-07T08:18:32.978Z,13.65
2016-11-07T08:19:45.544Z,13.72
2016-11-07T08:20:57.264Z,14
2016-11-07T08:22:09.320Z,14.12
2016-11-07T08:23:21.538Z,14.26
2016-11-07T08:24:32.568Z,14.36
2016-11-07T08:25:43.932Z,14.22
2016-11-07T08:26:55.720Z,14.28
2016-11-07T08:28:08.255Z,14.36
2016-11-07T08:29:21.120Z,14.45
2016-11-07T08:30:32.835Z,14.35
2016-11-07T08:31:44.062Z,14.4
2016-11-07T08:32:56.171Z,14.63
2016-11-07T08:34:08.217Z,14.89
2016-11-07T08:35:19.652Z,15
2016-11-07T08:36:30.868Z,15.04
2016-11-07T08:37:42.004Z,14.85
2016-11-07T08:38:53.693Z,14.65
2016-11-07T08:40:05.005Z,14.94
2016-11-07T08:41:17.441Z,14.97
2016-11-07T08:42:29.470Z,14.96
2016-11-07T08:43:41.038Z,15.22
2016-11-07T08:44:54.336Z,15.24
2016-11-07T08:46:05.157Z,15.18
2016-11-07T08:47:17.438Z,15.06
2016-11-07T08:48:29.929Z,15.06
2016-11-07T08:49:41.777Z,15
2016-11-07T08:50:52.056Z,15.19
2016-11-07T08:52:02.623Z,15.07
2016-11-07T08:53:13.960Z,15.17
2016-11-07T08:54:26.005Z,15.1
2016-11-07T08:55:37.691Z,15.37
2016-11-07T08:56:49.037Z,15.36
2016-11-07T08:58:01.273Z,15.61
2016-11-07T08:59:12.492Z,15.61
2016-11-07T09:00:23.846Z,15.76
2016-11-07T09:01:35.434Z,15.75
2016-11-07T09:02:46.108Z,15.88
2016-11-07T09:03:57.847Z,16.05
2016-11-07T09:05:08.729Z,16.24
2016-11-07T09:06:20.217Z,15.97
2016-11-07T09:07:31.613Z,15.84
2016-11-07T09:08:42.244Z,15.9
2016-11-07T09:09:53.577Z,16.04
2016-11-07T09:11:04.891Z,15.98
2016-11-07T09:12:16.610Z,16.1
2016-11-07T09:13:29.246Z,16.02
2016-11-07T09:14:40.617Z,15.95
2016-11-07T09:15:52.760Z,16.01
2016-11-07T09:17:05.208Z,16.15
2016-11-07T09:18:16.823Z,16.23
2016-11-07T09:19:28.629Z,16.23
2016-11-07T09:20:41.357Z,16.13
2016-11-07T09:21:54.129Z,16.38
2016-11-07T09:23:06.238Z,16.26
2016-11-07T09:24:17.492Z,16.15
2016-11-07T09:25:30.189Z,16.09
2016-11-07T09:26:42.957Z,16.09
2016-11-07T09:27:55.154Z,16.05
2016-11-07T09:29:06.709Z,16.24
2016-11-07T09:30:18.097Z,16.26
2016-11-07T09:31:28.653Z,16.35
2016-11-07T09:32:41.234Z,16.6
2016-11-07T09:33:51.929Z,16.71
2016-11-07T09:35:02.945Z,16.99
2016-11-07T09:36:14.703Z,17.06
2016-11-07T09:37:25.488Z,16.83
2016-11-07T09:38:36.614Z,16.83
2016-11-07T09:39:47.111Z,16.83
2016-11-07T09:40:58.530Z,16.65
2016-11-07T09:42:10.017Z,16.5
2016-11-07T09:43:22.274Z,16.71
2016-11-07T09:44:33.951Z,17.04
2016-11-07T09:45:43.799Z,16.97
2016-11-07T09:46:55.838Z,16.97
2016-11-07T09:48:07.139Z,17.01
2016-11-07T09:49:19.011Z,17.01
2016-11-07T09:50:31.348Z,16.72
2016-11-07T09:51:42.387Z,16.81
2016-11-07T09:52:54.277Z,16.66
2016-11-07T09:54:04.796Z,16.41
2016-11-07T09:55:16.972Z,16.29
2016-11-07T09:56:28.419Z,16.15
2016-11-07T09:57:39.538Z,16.71
2016-11-07T09:58:50.931Z,16.5
2016-11-07T10:00:01.670Z,16.72
2016-11-07T10:01:13.590Z,16.93
2016-11-07T10:02:25.747Z,16.99
2016-11-07T10:03:37.132Z,16.99
2016-11-07T10:04:49.219Z,17.09
2016-11-07T10:06:01.468Z,17.05
2016-11-07T10:07:13.289Z,17.11
2016-11-07T10:08:25.715Z,17.08
2016-11-07T10:09:37.343Z,16.9
2016-11-07T10:10:49.468Z,16.86
2016-11-07T10:12:01.987Z,16.75
2016-11-07T10:13:13.462Z,16.96
2016-11-07T10:14:24.969Z,16.93
2016-11-07T10:15:37.280Z,16.89
2016-11-07T10:16:49.068Z,17.04
2016-11-07T10:18:01.816Z,17.09
2016-11-07T10:19:13.512Z,17.2
2016-11-07T10:20:24.083Z,17.33
2016-11-07T10:21:36.718Z,17.49
2016-11-07T10:22:48.863Z,17.52
2016-11-07T10:24:00.817Z,17.48
2016-11-07T10:25:12.103Z,17.54
2016-11-07T10:26:24.847Z,17.14
2016-11-07T10:27:37.871Z,17.04
2016-11-07T10:28:48.659Z,17.08
2016-11-07T10:30:00.405Z,17.05
2016-11-07T10:31:11.892Z,17.04
2016-11-07T10:32:23.713Z,17.11
2016-11-07T10:33:35.617Z,17.34
2016-11-07T10:34:47.802Z,17.3
2016-11-07T10:36:00.859Z,17.23
2016-11-07T10:37:12.754Z,17.29
2016-11-07T10:38:25.139Z,17.38
2016-11-07T10:39:36.164Z,17.41
2016-11-07T10:40:48.211Z,17.26
2016-11-07T10:41:59.883Z,17.24
2016-11-07T10:43:11.939Z,17.04
2016-11-07T10:44:22.886Z,16.91
2016-11-07T10:45:35.187Z,16.84
2016-11-07T10:46:46.850Z,16.97
2016-11-07T10:47:59.151Z,17.3
2016-11-07T10:49:11.295Z,17.31
2016-11-07T10:50:22.339Z,16.91
2016-11-07T10:51:34.969Z,16.38
2016-11-07T10:52:48.166Z,16.41
2016-11-07T10:54:00.274Z,16.96
2016-11-07T10:55:12.030Z,17.06
2016-11-07T10:56:23.277Z,17.19
2016-11-07T10:57:34.445Z,17.45
2016-11-07T10:58:47.093Z,17.38
2016-11-07T10:59:57.542Z,17.39
2016-11-07T11:01:08.939Z,17.26
2016-11-07T11:02:20.163Z,17.57
2016-11-07T11:03:32.432Z,17.54
2016-11-07T11:04:44.790Z,17.52
2016-11-07T11:05:55.899Z,17.24
2016-11-07T11:07:08.237Z,17.24
2016-11-07T11:08:19.945Z,17.29
2016-11-07T11:09:31.686Z,17.36
2016-11-07T11:10:44.017Z,17.26
2016-11-07T11:11:54.315Z,17.3
2016-11-07T11:13:06.614Z,17.42
2016-11-07T11:14:18.498Z,17.48
2016-11-07T11:15:30.065Z,17.45
2016-11-07T11:16:41.064Z,17.42
2016-11-07T11:17:52.625Z,17.63
2016-11-07T11:19:03.048Z,17.72
2016-11-07T11:20:14.724Z,17.72
2016-11-07T11:21:25.954Z,17.6
2016-11-07T11:22:37.659Z,17.54
2016-11-07T11:23:48.644Z,17.63
2016-11-07T11:25:00.023Z,17.51
2016-11-07T11:26:11.211Z,17.57
2016-11-07T11:27:21.671Z,17.6
2016-11-07T11:28:33.444Z,17.44
2016-11-07T11:29:44.939Z,17.7
2016-11-07T11:30:56.435Z,17.57
2016-11-07T11:32:07.303Z,17.79
2016-11-07T11:33:18.754Z,17.79
2016-11-07T11:34:30.489Z,17.78
2016-11-07T11:35:41.611Z,17.68
2016-11-07T11:36:54.592Z,17.42
2016-11-07T11:38:05.959Z,17.57
2016-11-07T11:39:17.862Z,17.72
2016-11-07T11:40:29.698Z,17.64
2016-11-07T11:41:41.539Z,17.68
2016-11-07T11:42:53.348Z,17.72
2016-11-07T11:44:05.575Z,17.56
2016-11-07T11:45:17.759Z,17.56
2016-11-07T11:46:28.981Z,17.54
2016-11-07T11:47:40.483Z,17.19
2016-11-07T11:48:52.471Z,17.14
2016-11-07T11:50:04.110Z,17.23
2016-11-07T11:51:15.360Z,17.05
2016-11-07T11:52:27.109Z,17.08
2016-11-07T11:53:38.450Z,17.39
2016-11-07T11:54:50.289Z,17.39
2016-11-07T11:56:02.330Z,17.42
2016-11-07T11:57:14.584Z,17.44
2016-11-07T11:58:24.672Z,17.46
2016-11-07T11:59:36.892Z,17.51
2016-11-07T12:00:49.692Z,17.27
2016-11-07T12:02:00.483Z,17.16
2016-11-07T12:03:13.142Z,17.39
2016-11-07T12:04:25.766Z,17.59
2016-11-07T12:05:37.336Z,17.65
2016-11-07T12:06:50.102Z,17.68
2016-11-07T12:08:00.118Z,17.72
2016-11-07T12:09:11.074Z,17.57
2016-11-07T12:10:23.445Z,17.76
2016-11-07T12:11:34.703Z,17.63
2016-11-07T12:12:44.754Z,17.3
2016-11-07T12:13:56.813Z,17.2
2016-11-07T12:15:08.801Z,17.22
2016-11-07T12:16:20.183Z,17.11
2016-11-07T12:17:31.646Z,17.22
2016-11-07T12:18:44.683Z,17.11
2016-11-07T12:19:56.288Z,17.2
2016-11-07T12:21:08.380Z,17.34
2016-11-07T12:22:19.986Z,17.36
2016-11-07T12:23:31.744Z,17.41
2016-11-07T12:24:44.383Z,17.33
2016-11-07T12:25:55.110Z,17.06
2016-11-07T12:27:05.896Z,17.05
2016-11-07T12:28:16.922Z,17.09
2016-11-07T12:29:27.643Z,17.12
2016-11-07T12:30:39.573Z,17.22
2016-11-07T12:31:49.891Z,17.34
2016-11-07T12:33:01.213Z,17.16
2016-11-07T12:34:12.529Z,17.2
2016-11-07T12:35:24.604Z,17.26
2016-11-07T12:36:37.105Z,17.05
2016-11-07T12:37:49.467Z,17.29
2016-11-07T12:38:59.910Z,17.19
2016-11-07T12:40:11.995Z,17.38
2016-11-07T12:41:23.989Z,17.56
2016-11-07T12:42:35.795Z,17.71
2016-11-07T12:43:47.306Z,17.57
2016-11-07T12:44:59.484Z,17.59
2016-11-07T12:46:10.387Z,17.45
2016-11-07T12:47:21.025Z,17.56
2016-11-07T12:48:32.464Z,17.34
2016-11-07T12:49:44.875Z,17.16
2016-11-07T12:50:57.082Z,17.11
2016-11-07T12:52:08.102Z,17.16
2016-11-07T12:53:20.844Z,17.06
2016-11-07T12:54:33.040Z,17.05
2016-11-07T12:55:45.285Z,17.04
2016-11-07T12:56:58.138Z,16.87
2016-11-07T12:58:09.392Z,16.89
2016-11-07T12:59:21.877Z,16.93
2016-11-07T13:00:33.207Z,17.11
2016-11-07T13:01:46.407Z,17.09
2016-11-07T13:02:56.243Z,16.97
2016-11-07T13:04:07.661Z,17.14
2016-11-07T13:05:18.589Z,17.04
2016-11-07T13:06:29.004Z,17.08
2016-11-07T13:07:41.073Z,17.22
2016-11-07T13:08:52.025Z,17.12
2016-11-07T13:10:02.902Z,17.02
2016-11-07T13:11:14.965Z,17.15
2016-11-07T13:12:27.613Z,17.3
2016-11-07T13:13:39.492Z,17.36
2016-11-07T13:14:51.538Z,17.31
2016-11-07T13:16:02.780Z,17.27
2016-11-07T13:17:13.381Z,16.99
2016-11-07T13:18:24.444Z,16.76
2016-11-07T13:19:36.035Z,17.02
2016-11-07T13:20:47.112Z,16.96
2016-11-07T13:21:57.828Z,16.71
2016-11-07T13:23:08.918Z,16.9
2016-11-07T13:24:20.321Z,17.08
2016-11-07T13:25:31.578Z,17.15
2016-11-07T13:26:43.360Z,17.39
2016-11-07T13:27:55.656Z,17.34
2016-11-07T13:29:07.196Z,17.27
2016-11-07T13:30:19.115Z,17.29
2016-11-07T13:31:31.623Z,17.22
2016-11-07T13:32:43.787Z,17.34
2016-11-07T13:33:54.927Z,17.59
2016-11-07T13:35:05.575Z,17.72
2016-11-07T13:36:16.650Z,17.45
2016-11-07T13:37:27.217Z,17.7
2016-11-07T13:38:39.002Z,17.68
2016-11-07T13:39:51.760Z,17.78
2016-11-07T13:41:05.050Z,17.7
2016-11-07T13:42:16.942Z,17.56
2016-11-07T13:43:28.211Z,17.85
2016-11-07T13:44:40.303Z,17.51
2016-11-07T13:45:52.970Z,17.78
2016-11-07T13:47:04.793Z,18.08
2016-11-07T13:48:15.785Z,17.64
2016-11-07T13:49:26.612Z,17.65
2016-11-07T13:50:37.844Z,17.94
2016-11-07T13:51:49.245Z,18.19
2016-11-07T13:53:01.218Z,17.98
2016-11-07T13:54:13.925Z,17.71
2016-11-07T13:55:25.933Z,17.97
2016-11-07T13:56:37.850Z,18.05
2016-11-07T13:57:48.599Z,18.23
2016-11-07T13:59:00.433Z,18.38
2016-11-07T14:00:11.722Z,18.2
2016-11-07T14:01:23.484Z,17.97
2016-11-07T14:02:35.057Z,17.82
2016-11-07T14:03:47.815Z,17.79
2016-11-07T14:04:58.582Z,17.46
2016-11-07T14:06:09.417Z,17.51
2016-11-07T14:07:20.324Z,17.59
2016-11-07T14:08:32.521Z,17.67
2016-11-07T14:09:44.149Z,17.83
2016-11-07T14:10:54.626Z,17.45
2016-11-07T14:12:06.035Z,17.27
2016-11-07T14:13:18.075Z,17.51
2016-11-07T14:14:29.794Z,17.54
2016-11-07T14:15:41.299Z,17.31
2016-11-07T14:16:53.656Z,17.12
2016-11-07T14:18:06.484Z,17.05
2016-11-07T14:19:19.046Z,17.3
2016-11-07T14:20:30.651Z,17.31
2016-11-07T14:21:42.755Z,16.99
2016-11-07T14:22:52.689Z,17.29
2016-11-07T14:24:04.564Z,17.46
2016-11-07T14:25:16.131Z,17.39
2016-11-07T14:26:27.155Z,17.29
2016-11-07T14:27:39.104Z,17.36
2016-11-07T14:28:50.989Z,17.51
2016-11-07T14:30:03.075Z,17.48
2016-11-07T14:31:15.284Z,17.68
2016-11-07T14:32:27.076Z,17.36
2016-11-07T14:33:37.333Z,16.99
2016-11-07T14:34:49.355Z,16.99
2016-11-07T14:36:00.304Z,16.99
2016-11-07T14:37:12.456Z,17.23
2016-11-07T14:38:25.575Z,17.34
2016-11-07T14:39:37.159Z,17.41
2016-11-07T14:40:48.716Z,17.6
2016-11-07T14:41:59.534Z,17.67
2016-11-07T14:43:12.284Z,17.76
2016-11-07T14:44:23.797Z,17.79
2016-11-07T14:45:34.487Z,17.86
2016-11-07T14:46:45.946Z,17.51
2016-11-07T14:47:56.627Z,17.57
2016-11-07T14:49:08.624Z,17.3
2016-11-07T14:50:21.060Z,17.06
2016-11-07T14:51:32.097Z,17.3
2016-11-07T14:52:44.666Z,17.11
2016-11-07T14:53:56.464Z,16.72
2016-11-07T14:55:08.170Z,16.42
2016-11-07T14:56:18.493Z,16.36
2016-11-07T14:57:31.290Z,16.28
2016-11-07T14:58:42.478Z,16.31
2016-11-07T14:59:53.891Z,16.38
2016-11-07T15:01:03.899Z,16.32
2016-11-07T15:02:15.414Z,16.09
2016-11-07T15:03:27.540Z,15.91
2016-11-07T15:04:39.239Z,15.9
2016-11-07T15:05:49.424Z,15.92
2016-11-07T15:07:00.310Z,15.98
2016-11-07T15:08:13.066Z,16.04
2016-11-07T15:10:37.693Z,15.9
2016-11-07T15:11:48.600Z,15.83
2016-11-07T15:12:58.961Z,15.82
2016-11-07T15:14:11.594Z,15.86
2016-11-07T15:15:22.785Z,15.9
2016-11-07T15:16:34.334Z,15.98
2016-11-07T15:17:45.361Z,16.12
2016-11-07T15:18:56.615Z,15.94
2016-11-07T15:20:08.648Z,15.86
2016-11-07T15:21:20.330Z,15.75
2016-11-07T15:22:31.390Z,15.68
2016-11-07T15:23:42.887Z,15.61
2016-11-07T15:24:55.128Z,15.62
2016-11-07T15:26:07.839Z,15.64
2016-11-07T15:27:19.603Z,15.84
2016-11-07T15:28:30.379Z,15.91
2016-11-07T15:29:42.699Z,15.88
2016-11-07T15:30:55.481Z,15.84